sensor_id;sensor_type;location;lat;lon;timestamp;temperature;humidity
25108;DHT22;13090;53.422;7.670;2022-08-14T00:01:13;24.50;55.50
25108;DHT22;13090;53.422;7.670;2022-08-14T00:06:26;24.50;55.70
25108;DHT22;13090;53.422;7.670;2022-08-14T00:11:30;24.50;55.80
25108;DHT22;13090;53.422;7.670;2022-08-14T00:16:33;24.50;55.70
25108;DHT22;13090;53.422;7.670;2022-08-14T00:21:47;24.50;55.80
25108;DHT22;13090;53.422;7.670;2022-08-14T00:26:51;24.60;55.90
25108;DHT22;13090;53.422;7.670;2022-08-14T00:31:55;24.70;55.70
25108;DHT22;13090;53.422;7.670;2022-08-14T00:37:00;24.90;55.40
25108;DHT22;13090;53.422;7.670;2022-08-14T00:42:04;25.00;55.40
25108;DHT22;13090;53.422;7.670;2022-08-14T00:47:06;25.00;55.20
25108;DHT22;13090;53.422;7.670;2022-08-14T00:52:15;25.00;54.80
25108;DHT22;13090;53.422;7.670;2022-08-14T00:57:20;25.00;55.20
25108;DHT22;13090;53.422;7.670;2022-08-14T01:02:24;25.00;55.00
25108;DHT22;13090;53.422;7.670;2022-08-14T01:07:31;25.00;54.90
25108;DHT22;13090;53.422;7.670;2022-08-14T01:12:51;25.00;55.00
25108;DHT22;13090;53.422;7.670;2022-08-14T01:17:55;24.90;55.00
25108;DHT22;13090;53.422;7.670;2022-08-14T01:23:06;24.90;55.20
25108;DHT22;13090;53.422;7.670;2022-08-14T01:28:09;24.90;55.60
25108;DHT22;13090;53.422;7.670;2022-08-14T01:33:31;25.00;55.60
25108;DHT22;13090;53.422;7.670;2022-08-14T01:38:55;25.00;55.60
25108;DHT22;13090;53.422;7.670;2022-08-14T01:44:01;25.10;55.60
25108;DHT22;13090;53.422;7.670;2022-08-14T01:49:07;25.20;55.70
25108;DHT22;13090;53.422;7.670;2022-08-14T01:54:13;25.30;55.50
25108;DHT22;13090;53.422;7.670;2022-08-14T01:59:21;25.20;55.30
25108;DHT22;13090;53.422;7.670;2022-08-14T02:04:28;25.00;55.10
25108;DHT22;13090;53.422;7.670;2022-08-14T02:09:52;24.90;55.10
25108;DHT22;13090;53.422;7.670;2022-08-14T02:14:57;24.70;55.40
25108;DHT22;13090;53.422;7.670;2022-08-14T02:20:03;24.50;55.70
25108;DHT22;13090;53.422;7.670;2022-08-14T02:25:08;24.30;56.20
25108;DHT22;13090;53.422;7.670;2022-08-14T02:30:12;24.10;56.60
25108;DHT22;13090;53.422;7.670;2022-08-14T02:35:17;24.00;57.00
25108;DHT22;13090;53.422;7.670;2022-08-14T02:40:24;24.00;56.90
25108;DHT22;13090;53.422;7.670;2022-08-14T02:45:35;23.90;57.30
25108;DHT22;13090;53.422;7.670;2022-08-14T02:50:45;23.80;57.20
25108;DHT22;13090;53.422;7.670;2022-08-14T02:55:55;23.80;57.40
25108;DHT22;13090;53.422;7.670;2022-08-14T03:01:05;23.70;58.10
25108;DHT22;13090;53.422;7.670;2022-08-14T03:06:09;23.60;57.90
25108;DHT22;13090;53.422;7.670;2022-08-14T03:11:14;23.60;58.10
25108;DHT22;13090;53.422;7.670;2022-08-14T03:16:20;23.50;58.20
25108;DHT22;13090;53.422;7.670;2022-08-14T03:21:28;23.50;58.50
25108;DHT22;13090;53.422;7.670;2022-08-14T03:26:36;23.50;58.60
25108;DHT22;13090;53.422;7.670;2022-08-14T03:31:40;23.40;58.70
25108;DHT22;13090;53.422;7.670;2022-08-14T03:36:44;23.40;58.70
25108;DHT22;13090;53.422;7.670;2022-08-14T03:42:08;23.40;59.30
25108;DHT22;13090;53.422;7.670;2022-08-14T03:47:20;23.30;59.10
25108;DHT22;13090;53.422;7.670;2022-08-14T03:52:43;23.20;59.50
25108;DHT22;13090;53.422;7.670;2022-08-14T03:57:58;23.20;59.50
25108;DHT22;13090;53.422;7.670;2022-08-14T04:03:02;23.10;60.20
25108;DHT22;13090;53.422;7.670;2022-08-14T04:08:08;23.10;60.70
25108;DHT22;13090;53.422;7.670;2022-08-14T04:13:35;23.00;62.60
25108;DHT22;13090;53.422;7.670;2022-08-14T04:18:41;22.80;62.00
25108;DHT22;13090;53.422;7.670;2022-08-14T04:23:45;22.70;61.30
25108;DHT22;13090;53.422;7.670;2022-08-14T04:28:59;22.80;61.40
25108;DHT22;13090;53.422;7.670;2022-08-14T04:34:15;22.90;61.40
25108;DHT22;13090;53.422;7.670;2022-08-14T04:39:25;23.00;60.60
25108;DHT22;13090;53.422;7.670;2022-08-14T04:44:29;23.00;60.60
25108;DHT22;13090;53.422;7.670;2022-08-14T04:49:38;22.90;61.00
25108;DHT22;13090;53.422;7.670;2022-08-14T04:54:58;22.90;61.00
25108;DHT22;13090;53.422;7.670;2022-08-14T05:00:05;22.90;61.60
25108;DHT22;13090;53.422;7.670;2022-08-14T05:05:17;23.00;62.40
25108;DHT22;13090;53.422;7.670;2022-08-14T05:10:21;23.10;62.00
25108;DHT22;13090;53.422;7.670;2022-08-14T05:15:28;23.40;62.30
25108;DHT22;13090;53.422;7.670;2022-08-14T05:20:33;23.70;62.30
25108;DHT22;13090;53.422;7.670;2022-08-14T05:25:56;23.80;61.60
25108;DHT22;13090;53.422;7.670;2022-08-14T05:31:03;24.10;61.80
25108;DHT22;13090;53.422;7.670;2022-08-14T05:36:07;24.70;61.80
25108;DHT22;13090;53.422;7.670;2022-08-14T05:41:18;25.50;61.30
25108;DHT22;13090;53.422;7.670;2022-08-14T05:46:24;26.30;60.30
25108;DHT22;13090;53.422;7.670;2022-08-14T05:51:27;27.10;59.20
25108;DHT22;13090;53.422;7.670;2022-08-14T05:56:32;27.90;58.20
25108;DHT22;13090;53.422;7.670;2022-08-14T06:01:39;28.40;56.60
25108;DHT22;13090;53.422;7.670;2022-08-14T06:06:42;29.00;55.90
25108;DHT22;13090;53.422;7.670;2022-08-14T06:11:44;29.50;55.10
25108;DHT22;13090;53.422;7.670;2022-08-14T06:16:52;29.90;54.70
25108;DHT22;13090;53.422;7.670;2022-08-14T06:21:55;30.40;53.50
25108;DHT22;13090;53.422;7.670;2022-08-14T06:27:00;30.80;52.20
25108;DHT22;13090;53.422;7.670;2022-08-14T06:32:07;31.00;50.80
25108;DHT22;13090;53.422;7.670;2022-08-14T06:37:38;31.00;50.30
25108;DHT22;13090;53.422;7.670;2022-08-14T06:42:42;31.10;49.10
25108;DHT22;13090;53.422;7.670;2022-08-14T06:47:52;31.00;49.50
25108;DHT22;13090;53.422;7.670;2022-08-14T06:52:54;31.10;49.30
25108;DHT22;13090;53.422;7.670;2022-08-14T06:57:57;31.20;50.10
25108;DHT22;13090;53.422;7.670;2022-08-14T07:03:01;31.50;49.60
25108;DHT22;13090;53.422;7.670;2022-08-14T07:08:04;31.80;48.40
25108;DHT22;13090;53.422;7.670;2022-08-14T07:13:09;31.90;48.10
25108;DHT22;13090;53.422;7.670;2022-08-14T07:18:13;31.80;47.60
25108;DHT22;13090;53.422;7.670;2022-08-14T07:23:16;31.70;48.20
25108;DHT22;13090;53.422;7.670;2022-08-14T07:28:22;31.70;48.20
25108;DHT22;13090;53.422;7.670;2022-08-14T07:33:29;31.50;46.90
25108;DHT22;13090;53.422;7.670;2022-08-14T07:38:34;30.90;47.20
25108;DHT22;13090;53.422;7.670;2022-08-14T07:43:39;30.20;48.60
25108;DHT22;13090;53.422;7.670;2022-08-14T07:48:43;29.80;49.60
25108;DHT22;13090;53.422;7.670;2022-08-14T07:53:49;29.50;50.50
25108;DHT22;13090;53.422;7.670;2022-08-14T07:58:59;29.30;50.60
25108;DHT22;13090;53.422;7.670;2022-08-14T08:04:03;29.20;51.10
25108;DHT22;13090;53.422;7.670;2022-08-14T08:09:24;29.40;51.70
25108;DHT22;13090;53.422;7.670;2022-08-14T08:14:33;29.70;51.20
25108;DHT22;13090;53.422;7.670;2022-08-14T08:19:58;29.90;51.00
25108;DHT22;13090;53.422;7.670;2022-08-14T08:25:00;30.10;50.80
25108;DHT22;13090;53.422;7.670;2022-08-14T08:30:04;30.30;50.80
25108;DHT22;13090;53.422;7.670;2022-08-14T08:35:18;30.50;50.30
25108;DHT22;13090;53.422;7.670;2022-08-14T08:40:26;31.00;50.40
25108;DHT22;13090;53.422;7.670;2022-08-14T08:45:33;31.60;49.30
25108;DHT22;13090;53.422;7.670;2022-08-14T08:50:39;32.00;48.50
25108;DHT22;13090;53.422;7.670;2022-08-14T08:55:43;32.40;47.80
25108;DHT22;13090;53.422;7.670;2022-08-14T09:00:48;32.70;47.20
25108;DHT22;13090;53.422;7.670;2022-08-14T09:05:59;33.00;47.00
25108;DHT22;13090;53.422;7.670;2022-08-14T09:11:05;33.40;45.50
25108;DHT22;13090;53.422;7.670;2022-08-14T09:16:23;33.50;45.20
25108;DHT22;13090;53.422;7.670;2022-08-14T09:21:29;33.40;43.80
25108;DHT22;13090;53.422;7.670;2022-08-14T09:26:33;33.20;44.00
25108;DHT22;13090;53.422;7.670;2022-08-14T09:31:38;33.10;44.90
25108;DHT22;13090;53.422;7.670;2022-08-14T09:37:18;33.20;44.90
25108;DHT22;13090;53.422;7.670;2022-08-14T09:42:51;33.30;44.20
25108;DHT22;13090;53.422;7.670;2022-08-14T09:47:56;33.30;44.00
25108;DHT22;13090;53.422;7.670;2022-08-14T09:53:02;33.30;44.90
25108;DHT22;13090;53.422;7.670;2022-08-14T09:58:12;33.50;44.20
25108;DHT22;13090;53.422;7.670;2022-08-14T10:03:25;33.60;44.30
25108;DHT22;13090;53.422;7.670;2022-08-14T10:08:40;33.70;44.70
25108;DHT22;13090;53.422;7.670;2022-08-14T10:13:47;33.90;43.30
25108;DHT22;13090;53.422;7.670;2022-08-14T10:19:05;34.00;43.90
25108;DHT22;13090;53.422;7.670;2022-08-14T10:24:23;34.10;43.50
25108;DHT22;13090;53.422;7.670;2022-08-14T10:29:38;34.00;42.50
25108;DHT22;13090;53.422;7.670;2022-08-14T10:34:45;33.80;42.80
25108;DHT22;13090;53.422;7.670;2022-08-14T10:40:00;33.70;43.00
25108;DHT22;13090;53.422;7.670;2022-08-14T10:45:19;33.80;42.90
25108;DHT22;13090;53.422;7.670;2022-08-14T10:50:30;34.10;43.70
25108;DHT22;13090;53.422;7.670;2022-08-14T10:55:36;34.50;42.60
25108;DHT22;13090;53.422;7.670;2022-08-14T11:00:54;34.50;41.70
25108;DHT22;13090;53.422;7.670;2022-08-14T11:05:58;34.60;41.20
25108;DHT22;13090;53.422;7.670;2022-08-14T11:11:05;34.60;41.20
25108;DHT22;13090;53.422;7.670;2022-08-14T11:16:11;34.30;40.80
25108;DHT22;13090;53.422;7.670;2022-08-14T11:21:17;33.90;41.40
25108;DHT22;13090;53.422;7.670;2022-08-14T11:26:25;33.60;42.00
25108;DHT22;13090;53.422;7.670;2022-08-14T11:31:32;33.40;42.50
25108;DHT22;13090;53.422;7.670;2022-08-14T11:36:40;33.40;43.10
25108;DHT22;13090;53.422;7.670;2022-08-14T11:42:05;33.40;43.10
25108;DHT22;13090;53.422;7.670;2022-08-14T11:47:36;33.40;42.80
25108;DHT22;13090;53.422;7.670;2022-08-14T11:53:02;33.30;43.00
25108;DHT22;13090;53.422;7.670;2022-08-14T11:58:08;33.20;42.90
25108;DHT22;13090;53.422;7.670;2022-08-14T12:03:12;33.30;43.20
25108;DHT22;13090;53.422;7.670;2022-08-14T12:08:19;33.40;43.50
25108;DHT22;13090;53.422;7.670;2022-08-14T12:13:32;33.50;42.40
25108;DHT22;13090;53.422;7.670;2022-08-14T12:18:37;33.30;42.30
25108;DHT22;13090;53.422;7.670;2022-08-14T12:23:40;33.00;42.50
25108;DHT22;13090;53.422;7.670;2022-08-14T12:28:44;32.60;43.50
25108;DHT22;13090;53.422;7.670;2022-08-14T12:34:03;32.30;43.60
25108;DHT22;13090;53.422;7.670;2022-08-14T12:39:18;32.10;44.20
25108;DHT22;13090;53.422;7.670;2022-08-14T12:44:30;32.00;44.80
25108;DHT22;13090;53.422;7.670;2022-08-14T12:49:34;32.00;43.90
25108;DHT22;13090;53.422;7.670;2022-08-14T12:54:37;32.00;44.60
25108;DHT22;13090;53.422;7.670;2022-08-14T13:00:10;32.00;44.50
25108;DHT22;13090;53.422;7.670;2022-08-14T13:05:26;32.10;44.10
25108;DHT22;13090;53.422;7.670;2022-08-14T13:10:32;32.30;43.80
25108;DHT22;13090;53.422;7.670;2022-08-14T13:15:54;32.30;43.50
25108;DHT22;13090;53.422;7.670;2022-08-14T13:21:00;32.30;43.60
25108;DHT22;13090;53.422;7.670;2022-08-14T13:26:06;32.30;44.10
25108;DHT22;13090;53.422;7.670;2022-08-14T13:31:12;32.40;43.40
25108;DHT22;13090;53.422;7.670;2022-08-14T13:36:17;32.40;42.70
25108;DHT22;13090;53.422;7.670;2022-08-14T13:41:26;32.50;42.80
25108;DHT22;13090;53.422;7.670;2022-08-14T13:46:39;32.60;43.00
25108;DHT22;13090;53.422;7.670;2022-08-14T13:51:46;32.70;42.90
25108;DHT22;13090;53.422;7.670;2022-08-14T13:56:50;32.80;42.80
25108;DHT22;13090;53.422;7.670;2022-08-14T14:01:55;32.80;42.90
25108;DHT22;13090;53.422;7.670;2022-08-14T14:07:02;32.80;42.60
25108;DHT22;13090;53.422;7.670;2022-08-14T14:12:05;33.00;42.30
25108;DHT22;13090;53.422;7.670;2022-08-14T14:17:30;33.10;41.70
25108;DHT22;13090;53.422;7.670;2022-08-14T14:22:33;33.00;40.80
25108;DHT22;13090;53.422;7.670;2022-08-14T14:27:57;32.90;41.60
25108;DHT22;13090;53.422;7.670;2022-08-14T14:33:01;32.80;41.60
25108;DHT22;13090;53.422;7.670;2022-08-14T14:38:16;32.70;42.10
25108;DHT22;13090;53.422;7.670;2022-08-14T14:43:23;32.50;42.20
25108;DHT22;13090;53.422;7.670;2022-08-14T14:48:28;32.40;42.50
25108;DHT22;13090;53.422;7.670;2022-08-14T14:53:33;32.30;42.30
25108;DHT22;13090;53.422;7.670;2022-08-14T14:58:41;32.40;42.10
25108;DHT22;13090;53.422;7.670;2022-08-14T15:03:49;32.30;42.10
25108;DHT22;13090;53.422;7.670;2022-08-14T15:08:53;32.40;42.50
25108;DHT22;13090;53.422;7.670;2022-08-14T15:14:01;32.50;42.70
25108;DHT22;13090;53.422;7.670;2022-08-14T15:19:25;32.70;42.20
25108;DHT22;13090;53.422;7.670;2022-08-14T15:24:28;32.80;41.20
25108;DHT22;13090;53.422;7.670;2022-08-14T15:29:32;32.80;41.00
25108;DHT22;13090;53.422;7.670;2022-08-14T15:34:36;32.90;40.80
25108;DHT22;13090;53.422;7.670;2022-08-14T15:39:52;32.90;40.80
25108;DHT22;13090;53.422;7.670;2022-08-14T15:44:55;32.90;41.20
25108;DHT22;13090;53.422;7.670;2022-08-14T15:50:07;32.90;41.00
25108;DHT22;13090;53.422;7.670;2022-08-14T15:55:12;32.90;40.90
25108;DHT22;13090;53.422;7.670;2022-08-14T16:00:34;32.90;40.50
25108;DHT22;13090;53.422;7.670;2022-08-14T16:05:45;32.80;40.30
25108;DHT22;13090;53.422;7.670;2022-08-14T16:10:47;32.70;40.80
25108;DHT22;13090;53.422;7.670;2022-08-14T16:15:51;32.60;40.80
25108;DHT22;13090;53.422;7.670;2022-08-14T16:20:59;32.60;40.90
25108;DHT22;13090;53.422;7.670;2022-08-14T16:26:02;32.50;41.10
25108;DHT22;13090;53.422;7.670;2022-08-14T16:31:06;32.50;41.00
25108;DHT22;13090;53.422;7.670;2022-08-14T16:36:13;32.40;40.80
25108;DHT22;13090;53.422;7.670;2022-08-14T16:41:34;32.40;41.30
25108;DHT22;13090;53.422;7.670;2022-08-14T16:46:42;32.30;41.10
25108;DHT22;13090;53.422;7.670;2022-08-14T16:51:48;32.30;41.70
25108;DHT22;13090;53.422;7.670;2022-08-14T16:57:14;32.20;41.70
25108;DHT22;13090;53.422;7.670;2022-08-14T17:02:35;32.20;42.00
25108;DHT22;13090;53.422;7.670;2022-08-14T17:07:41;32.10;42.00
25108;DHT22;13090;53.422;7.670;2022-08-14T17:13:17;32.10;42.40
25108;DHT22;13090;53.422;7.670;2022-08-14T17:18:35;32.00;42.20
25108;DHT22;13090;53.422;7.670;2022-08-14T17:23:38;32.00;42.90
25108;DHT22;13090;53.422;7.670;2022-08-14T17:28:43;31.90;42.20
25108;DHT22;13090;53.422;7.670;2022-08-14T17:33:55;31.80;42.60
25108;DHT22;13090;53.422;7.670;2022-08-14T17:39:00;31.80;42.80
25108;DHT22;13090;53.422;7.670;2022-08-14T17:44:24;31.80;43.40
25108;DHT22;13090;53.422;7.670;2022-08-14T17:49:48;31.70;43.20
25108;DHT22;13090;53.422;7.670;2022-08-14T17:54:53;31.70;44.00
25108;DHT22;13090;53.422;7.670;2022-08-14T18:00:04;31.60;43.40
25108;DHT22;13090;53.422;7.670;2022-08-14T18:05:09;31.60;43.40
25108;DHT22;13090;53.422;7.670;2022-08-14T18:10:12;31.50;43.50
25108;DHT22;13090;53.422;7.670;2022-08-14T18:15:36;31.40;43.50
25108;DHT22;13090;53.422;7.670;2022-08-14T18:20:43;31.40;43.80
25108;DHT22;13090;53.422;7.670;2022-08-14T18:26:07;31.30;43.80
25108;DHT22;13090;53.422;7.670;2022-08-14T18:31:36;31.20;44.00
25108;DHT22;13090;53.422;7.670;2022-08-14T18:36:48;31.10;44.60
25108;DHT22;13090;53.422;7.670;2022-08-14T18:47:36;30.90;45.20
25108;DHT22;13090;53.422;7.670;2022-08-14T18:53:05;30.90;44.60
25108;DHT22;13090;53.422;7.670;2022-08-14T18:58:13;30.80;44.90
25108;DHT22;13090;53.422;7.670;2022-08-14T19:03:55;30.60;45.10
25108;DHT22;13090;53.422;7.670;2022-08-14T19:09:01;30.50;45.60
25108;DHT22;13090;53.422;7.670;2022-08-14T19:14:07;30.30;45.50
25108;DHT22;13090;53.422;7.670;2022-08-14T19:19:22;30.10;45.70
25108;DHT22;13090;53.422;7.670;2022-08-14T19:24:42;29.90;46.30
25108;DHT22;13090;53.422;7.670;2022-08-14T19:29:48;29.70;47.10
25108;DHT22;13090;53.422;7.670;2022-08-14T19:34:54;29.40;46.90
25108;DHT22;13090;53.422;7.670;2022-08-14T19:40:04;29.20;47.70
25108;DHT22;13090;53.422;7.670;2022-08-14T19:45:21;28.90;48.20
25108;DHT22;13090;53.422;7.670;2022-08-14T19:50:27;28.80;49.10
25108;DHT22;13090;53.422;7.670;2022-08-14T19:55:56;28.70;48.90
25108;DHT22;13090;53.422;7.670;2022-08-14T20:01:03;28.60;48.90
25108;DHT22;13090;53.422;7.670;2022-08-14T20:06:11;28.60;49.00
25108;DHT22;13090;53.422;7.670;2022-08-14T20:11:27;28.60;48.80
25108;DHT22;13090;53.422;7.670;2022-08-14T20:16:52;28.60;49.10
25108;DHT22;13090;53.422;7.670;2022-08-14T20:22:01;28.50;48.70
25108;DHT22;13090;53.422;7.670;2022-08-14T20:27:37;28.50;48.60
25108;DHT22;13090;53.422;7.670;2022-08-14T20:32:47;28.50;49.60
25108;DHT22;13090;53.422;7.670;2022-08-14T20:38:21;28.40;49.10
25108;DHT22;13090;53.422;7.670;2022-08-14T20:43:37;28.30;49.70
25108;DHT22;13090;53.422;7.670;2022-08-14T20:48:40;28.20;49.50
25108;DHT22;13090;53.422;7.670;2022-08-14T20:53:55;28.00;49.50
25108;DHT22;13090;53.422;7.670;2022-08-14T20:59:11;27.90;50.10
25108;DHT22;13090;53.422;7.670;2022-08-14T21:04:29;27.80;51.70
25108;DHT22;13090;53.422;7.670;2022-08-14T21:09:42;27.60;51.70
25108;DHT22;13090;53.422;7.670;2022-08-14T21:15:08;27.50;52.70
25108;DHT22;13090;53.422;7.670;2022-08-14T21:20:16;27.40;52.60
25108;DHT22;13090;53.422;7.670;2022-08-14T21:25:30;27.30;54.60
25108;DHT22;13090;53.422;7.670;2022-08-14T21:30:34;27.20;55.20
25108;DHT22;13090;53.422;7.670;2022-08-14T21:35:56;27.10;56.10
25108;DHT22;13090;53.422;7.670;2022-08-14T21:41:02;27.10;56.60
25108;DHT22;13090;53.422;7.670;2022-08-14T21:46:24;27.10;56.10
25108;DHT22;13090;53.422;7.670;2022-08-14T21:51:30;27.00;56.80
25108;DHT22;13090;53.422;7.670;2022-08-14T21:56:52;27.00;57.60
25108;DHT22;13090;53.422;7.670;2022-08-14T22:02:00;27.00;57.60
25108;DHT22;13090;53.422;7.670;2022-08-14T22:07:08;27.00;57.80
25108;DHT22;13090;53.422;7.670;2022-08-14T22:12:11;26.90;58.10
25108;DHT22;13090;53.422;7.670;2022-08-14T22:17:33;26.80;58.30
25108;DHT22;13090;53.422;7.670;2022-08-14T22:22:38;26.80;58.90
25108;DHT22;13090;53.422;7.670;2022-08-14T22:27:44;26.70;58.80
25108;DHT22;13090;53.422;7.670;2022-08-14T22:32:59;26.70;58.70
25108;DHT22;13090;53.422;7.670;2022-08-14T22:38:03;26.60;58.20
25108;DHT22;13090;53.422;7.670;2022-08-14T22:43:25;26.60;59.00
25108;DHT22;13090;53.422;7.670;2022-08-14T22:48:27;26.50;58.70
25108;DHT22;13090;53.422;7.670;2022-08-14T22:53:32;26.40;59.70
25108;DHT22;13090;53.422;7.670;2022-08-14T22:58:34;26.30;60.00
25108;DHT22;13090;53.422;7.670;2022-08-14T23:03:38;26.20;60.10
25108;DHT22;13090;53.422;7.670;2022-08-14T23:08:44;26.20;60.60
25108;DHT22;13090;53.422;7.670;2022-08-14T23:14:07;26.10;61.00
25108;DHT22;13090;53.422;7.670;2022-08-14T23:19:14;26.10;60.30
25108;DHT22;13090;53.422;7.670;2022-08-14T23:24:20;26.00;60.60
25108;DHT22;13090;53.422;7.670;2022-08-14T23:29:28;26.00;60.00
25108;DHT22;13090;53.422;7.670;2022-08-14T23:34:32;26.00;60.10
25108;DHT22;13090;53.422;7.670;2022-08-14T23:39:40;26.00;59.50
25108;DHT22;13090;53.422;7.670;2022-08-14T23:44:44;25.90;59.70
25108;DHT22;13090;53.422;7.670;2022-08-14T23:49:47;25.90;59.70
25108;DHT22;13090;53.422;7.670;2022-08-14T23:55:06;25.90;60.00
